Time;durP1;ratioP1;P1;durP2;ratioP2;P2;SDS_P1;SDS_P2;PMS_P1;PMS_P2;Temp;Humidity;BMP_temperature;BMP_pressure;BME280_temperature;BME280_humidity;BME280_pressure;Samples;Min_cycle;Max_cycle;Signal;HPM_P1;HPM_P2
2022/08/07 00:00:44;;;;;;;7.30;2.55;;;;;;;13.01;80.26;102547.84;5104583;28;20051;-84
2022/08/07 00:03:09;;;;;;;4.50;2.40;;;;;;;13.01;79.35;102545.16;5112477;28;20024;-82
2022/08/07 00:05:35;;;;;;;4.63;2.30;;;;;;;12.91;79.60;102536.84;5113222;28;20079;-82
2022/08/07 00:08:00;;;;;;;5.78;2.55;;;;;;;12.92;80.13;102541.19;5113767;28;20016;-83
2022/08/07 00:10:26;;;;;;;4.50;2.60;;;;;;;12.85;80.42;102544.00;5110357;28;20576;-83
2022/08/07 00:12:52;;;;;;;6.93;2.65;;;;;;;12.82;80.88;102539.06;5112535;28;20039;-84
2022/08/07 00:15:17;;;;;;;5.83;2.83;;;;;;;12.76;81.28;102532.75;5111031;28;20523;-83
2022/08/07 00:17:43;;;;;;;4.83;2.97;;;;;;;12.72;81.89;102537.75;5111699;28;20031;-82
2022/08/07 00:20:09;;;;;;;9.32;3.00;;;;;;;12.71;81.65;102527.22;5109727;28;20035;-84
2022/08/07 00:22:34;;;;;;;4.47;3.10;;;;;;;12.68;81.40;102533.91;5110367;28;20087;-83
2022/08/07 00:24:59;;;;;;;4.57;2.80;;;;;;;12.61;82.06;102525.09;5110563;28;20047;-84
2022/08/07 00:27:24;;;;;;;4.73;3.20;;;;;;;12.62;81.47;102529.44;5111455;28;20024;-83
2022/08/07 00:29:53;;;;;;;6.30;2.90;;;;;;;12.66;80.94;102532.47;5111416;28;20417;-82
2022/08/07 00:32:18;;;;;;;4.80;3.22;;;;;;;12.62;81.99;102523.22;5109484;28;20054;-82
2022/08/07 00:34:48;;;;;;;6.20;3.23;;;;;;;12.56;82.31;102523.09;5111090;28;20009;-82
2022/08/07 00:37:13;;;;;;;4.70;3.28;;;;;;;12.44;83.13;102503.41;5112195;28;20021;-82
2022/08/07 00:39:38;;;;;;;6.10;3.37;;;;;;;12.44;83.14;102518.75;5111816;28;20030;-83
2022/08/07 00:42:04;;;;;;;4.90;3.30;;;;;;;12.40;82.19;102496.88;5112017;28;20412;-83
2022/08/07 00:44:29;;;;;;;7.05;3.40;;;;;;;12.37;83.17;102510.78;5111842;28;20055;-83
2022/08/07 00:46:55;;;;;;;3.97;3.57;;;;;;;12.35;83.28;102510.97;5111596;28;20091;-82
2022/08/07 00:49:20;;;;;;;6.53;3.20;;;;;;;12.29;83.81;102511.91;5112381;28;20024;-82
2022/08/07 00:51:46;;;;;;;5.93;3.70;;;;;;;12.21;83.77;102502.31;5111263;28;20080;-83
2022/08/07 00:54:13;;;;;;;5.53;3.27;;;;;;;12.24;83.82;102509.09;5110906;28;20020;-83
2022/08/07 00:56:39;;;;;;;6.93;3.40;;;;;;;12.18;84.01;102513.50;5111784;28;20677;-82
2022/08/07 00:59:05;;;;;;;6.72;3.38;;;;;;;12.17;84.09;102519.09;5110683;28;20047;-83
2022/08/07 01:01:31;;;;;;;8.57;3.47;;;;;;;12.11;84.64;102504.69;5104685;28;20016;-82
2022/08/07 01:03:56;;;;;;;7.25;3.67;;;;;;;12.08;84.79;102499.78;5095255;28;20043;-83
2022/08/07 01:06:21;;;;;;;9.07;3.73;;;;;;;12.06;84.56;102499.19;5096706;28;20046;-83
2022/08/07 01:08:47;;;;;;;6.63;3.73;;;;;;;12.03;85.41;102497.78;5105361;28;20024;-82
2022/08/07 01:11:13;;;;;;;9.13;3.73;;;;;;;12.01;86.02;102499.06;5098211;28;20024;-83
2022/08/07 01:13:40;;;;;;;9.13;4.07;;;;;;;12.00;86.20;102487.47;5109718;28;20024;-82
2022/08/07 01:16:06;;;;;;;4.68;3.53;;;;;;;12.00;85.21;102500.09;5105264;28;20089;-84
2022/08/07 01:18:32;;;;;;;4.53;3.90;;;;;;;11.94;86.04;102497.22;5110769;28;20055;-82
2022/08/07 01:21:09;;;;;;;9.55;3.60;;;;;;;11.92;86.22;102495.84;5110462;28;20024;-83
2022/08/07 01:23:34;;;;;;;6.95;3.80;;;;;;;11.85;86.08;102490.53;5108632;28;20031;-82
2022/08/07 01:26:00;;;;;;;7.27;3.97;;;;;;;11.81;86.31;102482.09;5110754;28;20004;-83
2022/08/07 01:28:26;;;;;;;16.02;3.80;;;;;;;11.64;86.14;102468.47;5095900;28;20027;-84
2022/08/07 01:30:52;;;;;;;8.48;3.80;;;;;;;11.75;86.66;102480.34;5104908;28;20438;-83
2022/08/07 01:33:18;;;;;;;10.77;4.13;;;;;;;11.70;86.42;102479.34;5102295;28;20030;-82
2022/08/07 01:35:44;;;;;;;7.40;3.78;;;;;;;11.71;87.11;102483.66;5110982;28;20047;-82
2022/08/07 01:38:10;;;;;;;5.65;3.85;;;;;;;11.70;86.51;102487.41;5111394;28;20024;-82
2022/08/07 01:40:37;;;;;;;8.38;4.20;;;;;;;11.56;87.14;102476.81;5110603;28;20103;-83
2022/08/07 01:43:03;;;;;;;9.40;4.07;;;;;;;11.62;87.28;102486.69;5110722;28;20076;-82
2022/08/07 01:45:28;;;;;;;6.00;4.32;;;;;;;11.54;88.49;102470.84;5111478;28;20004;-82
2022/08/07 01:47:55;;;;;;;6.43;4.10;;;;;;;11.55;88.45;102475.19;5111937;28;20061;-81
2022/08/07 01:50:21;;;;;;;5.43;4.13;;;;;;;11.51;88.72;102480.19;5111513;28;20043;-82
2022/08/07 01:52:51;;;;;;;10.25;4.07;;;;;;;11.45;88.51;102466.84;5111916;28;20035;-82
2022/08/07 01:55:17;;;;;;;5.75;3.70;;;;;;;11.46;88.20;102473.84;5112561;28;20020;-82
2022/08/07 01:57:44;;;;;;;11.80;4.37;;;;;;;11.44;88.85;102474.06;5112333;28;20035;-82
2022/08/07 02:00:11;;;;;;;8.07;4.70;;;;;;;11.43;88.70;102482.34;5110736;28;20254;-82
2022/08/07 02:02:42;;;;;;;6.47;4.63;;;;;;;11.41;89.30;102476.38;5111116;28;20028;-81
2022/08/07 02:05:31;;;;;;;7.05;4.35;;;;;;;11.27;88.52;102470.31;5111455;28;20142;-81
2022/08/07 02:07:59;;;;;;;9.70;4.40;;;;;;;11.30;88.99;102477.94;5111286;28;20062;-82
2022/08/07 02:10:26;;;;;;;6.80;4.50;;;;;;;11.23;89.91;102477.19;5111499;28;20012;-81
2022/08/07 02:12:56;;;;;;;6.15;4.60;;;;;;;11.19;89.88;102477.63;5111937;28;20012;-83
2022/08/07 02:15:23;;;;;;;9.60;4.80;;;;;;;11.04;89.79;102453.81;5111856;28;20023;-83
2022/08/07 02:17:51;;;;;;;10.10;4.32;;;;;;;11.15;90.14;102472.91;5111857;28;20046;-82
2022/08/07 02:20:18;;;;;;;7.70;4.63;;;;;;;11.16;90.21;102474.53;5110774;28;20107;-82
2022/08/07 02:22:45;;;;;;;8.53;4.97;;;;;;;11.13;90.41;102475.00;5111682;28;20031;-82
2022/08/07 02:25:12;;;;;;;8.53;5.13;;;;;;;11.15;90.33;102465.69;5111335;28;20307;-83
2022/08/07 02:27:39;;;;;;;7.75;4.88;;;;;;;11.12;90.94;102471.50;5111458;28;20052;-82
2022/08/07 02:30:05;;;;;;;7.43;4.93;;;;;;;11.11;90.85;102469.03;5113254;28;20000;-84
2022/08/07 02:32:32;;;;;;;10.80;4.85;;;;;;;11.10;90.65;102464.72;5114340;28;20035;-81
2022/08/07 02:34:59;;;;;;;6.88;4.60;;;;;;;11.00;90.30;102467.91;5114564;28;20092;-81
2022/08/07 02:37:26;;;;;;;10.43;4.60;;;;;;;10.94;90.24;102453.53;5112251;28;20035;-83
2022/08/07 02:39:53;;;;;;;12.48;5.40;;;;;;;10.92;90.49;102458.28;5103649;28;20028;-83
2022/08/07 02:42:19;;;;;;;13.65;4.82;;;;;;;10.88;91.16;102451.72;5095330;28;20043;-81
2022/08/07 02:44:48;;;;;;;9.80;4.70;;;;;;;10.84;92.01;102454.03;5094883;28;20025;-83
2022/08/07 02:47:15;;;;;;;8.03;4.80;;;;;;;10.88;91.96;102457.88;5094477;28;20274;-83
2022/08/07 02:49:41;;;;;;;8.20;5.15;;;;;;;10.81;91.69;102464.34;5102892;28;20055;-83
2022/08/07 02:52:12;;;;;;;9.67;5.10;;;;;;;10.75;91.45;102453.47;5106888;28;20035;-84
2022/08/07 02:54:40;;;;;;;7.80;4.95;;;;;;;10.75;92.38;102453.47;5107496;28;20020;-82
2022/08/07 02:57:10;;;;;;;14.23;4.90;;;;;;;10.74;92.47;102443.78;5114799;28;20032;-83
2022/08/07 02:59:36;;;;;;;10.68;5.63;;;;;;;10.73;93.98;102450.19;5116557;28;20024;-83
2022/08/07 03:02:02;;;;;;;11.27;5.10;;;;;;;10.73;92.29;102452.88;5101909;28;20043;-82
2022/08/07 03:04:29;;;;;;;9.77;5.32;;;;;;;10.79;92.28;102455.69;5096509;28;20032;-83
2022/08/07 03:06:55;;;;;;;8.85;5.70;;;;;;;10.79;93.03;102450.31;5095669;28;20024;-83
2022/08/07 03:09:21;;;;;;;8.90;5.18;;;;;;;10.78;92.33;102454.03;5093814;28;20070;-83
2022/08/07 03:11:47;;;;;;;10.80;5.27;;;;;;;10.71;93.45;102446.91;5094263;28;20027;-82
2022/08/07 03:14:14;;;;;;;11.20;5.73;;;;;;;10.73;93.08;102449.34;5094693;28;20270;-83
2022/08/07 03:16:39;;;;;;;9.63;5.80;;;;;;;10.66;93.13;102451.28;5094770;28;20047;-83
2022/08/07 03:19:06;;;;;;;6.50;5.15;;;;;;;10.61;93.08;102449.22;5094694;28;20463;-83
2022/08/07 03:21:32;;;;;;;8.20;6.23;;;;;;;10.52;94.31;102437.16;5094232;28;20074;-82
2022/08/07 03:23:58;;;;;;;8.63;5.37;;;;;;;10.56;93.74;102449.91;5092949;28;20325;-82
2022/08/07 03:26:29;;;;;;;7.22;5.40;;;;;;;10.55;93.69;102453.59;5094519;28;20043;-83
2022/08/07 03:28:57;;;;;;;13.35;5.78;;;;;;;10.57;94.55;102448.03;5094360;28;20028;-82
2022/08/07 03:31:25;;;;;;;8.35;6.70;;;;;;;10.53;94.83;102447.63;5093267;28;20081;-82
2022/08/07 03:33:56;;;;;;;13.45;5.82;;;;;;;10.54;95.15;102451.16;5093624;28;20035;-82
2022/08/07 03:36:24;;;;;;;9.87;6.00;;;;;;;10.48;95.03;102441.31;5093513;28;20020;-83
2022/08/07 03:38:52;;;;;;;10.43;6.00;;;;;;;10.46;94.42;102436.16;5093578;28;20281;-83
2022/08/07 03:41:17;;;;;;;8.23;5.57;;;;;;;10.38;94.15;102442.63;5092433;28;20027;-83
2022/08/07 03:43:43;;;;;;;9.95;6.07;;;;;;;10.36;94.05;102441.13;5093091;28;20081;-83
2022/08/07 03:46:11;;;;;;;10.70;6.00;;;;;;;10.29;94.44;102435.81;5093074;28;20027;-83
2022/08/07 03:48:37;;;;;;;11.02;5.97;;;;;;;10.29;94.60;102446.53;5092962;28;20020;-83
2022/08/07 03:51:03;;;;;;;8.90;6.07;;;;;;;10.29;95.00;102446.53;5092296;28;20501;-83
2022/08/07 03:53:29;;;;;;;8.70;6.35;;;;;;;10.30;95.45;102451.72;5092948;28;20085;-83
2022/08/07 03:55:57;;;;;;;7.78;5.60;;;;;;;10.31;95.07;102444.47;5093220;28;20034;-83
2022/08/07 03:58:24;;;;;;;13.35;6.28;;;;;;;10.27;94.31;102448.63;5100872;28;20058;-83
2022/08/07 04:00:52;;;;;;;9.18;5.78;;;;;;;10.23;94.81;102448.25;5096906;28;20032;-83
2022/08/07 04:03:18;;;;;;;11.90;5.90;;;;;;;10.18;95.29;102442.69;5098914;28;20027;-83
2022/08/07 04:05:44;;;;;;;10.97;6.30;;;;;;;10.18;95.59;102456.09;5092931;28;20277;-83
2022/08/07 04:08:13;;;;;;;10.80;6.10;;;;;;;10.18;95.91;102456.09;5093223;28;20379;-83
2022/08/07 04:10:40;;;;;;;10.73;6.10;;;;;;;10.19;96.68;102464.97;5092358;28;20032;-83
2022/08/07 04:13:06;;;;;;;10.30;6.07;;;;;;;10.17;96.79;102454.44;5093077;28;20274;-83
2022/08/07 04:15:32;;;;;;;13.32;5.97;;;;;;;10.17;96.91;102451.75;5092589;28;20133;-83
2022/08/07 04:17:58;;;;;;;9.20;6.15;;;;;;;10.20;96.26;102451.34;5092506;28;20077;-83
2022/08/07 04:20:24;;;;;;;9.43;6.65;;;;;;;10.26;97.33;102463.03;5092188;28;20028;-83
2022/08/07 04:22:51;;;;;;;8.50;6.13;;;;;;;10.29;96.82;102462.63;5092606;28;20624;-81
2022/08/07 04:25:18;;;;;;;12.10;6.85;;;;;;;10.24;96.97;102459.75;5092123;28;20027;-83
2022/08/07 04:27:44;;;;;;;10.00;6.75;;;;;;;10.26;96.67;102463.03;5092359;28;20028;-84
2022/08/07 04:30:11;;;;;;;16.77;6.93;;;;;;;10.33;96.87;102465.69;5091587;28;20056;-83
2022/08/07 04:32:36;;;;;;;11.68;6.95;;;;;;;10.29;97.69;102463.47;5092146;28;20044;-83
2022/08/07 04:35:06;;;;;;;10.90;6.67;;;;;;;10.35;96.48;102464.44;5092175;28;20413;-83
2022/08/07 04:37:32;;;;;;;11.02;6.75;;;;;;;10.34;97.39;102465.47;5091814;28;20020;-82
2022/08/07 04:39:58;;;;;;;8.82;6.65;;;;;;;10.38;97.26;102461.38;5091237;28;20205;-83
2022/08/07 04:42:28;;;;;;;10.27;6.93;;;;;;;10.46;97.21;102468.31;5092110;28;20104;-84
2022/08/07 04:44:55;;;;;;;10.35;7.32;;;;;;;10.48;97.56;102465.41;5092062;28;20035;-82
2022/08/07 04:47:57;;;;;;;13.52;7.03;;;;;;;10.51;96.19;102471.16;5091839;28;20028;-83
2022/08/07 04:50:37;;;;;;;9.98;7.07;;;;;;;10.54;96.65;102469.91;5091079;28;20115;-83
2022/08/07 04:53:20;;;;;;;13.48;6.35;;;;;;;10.56;96.13;102476.69;5091227;28;20028;-83
2022/08/07 04:55:47;;;;;;;10.82;6.57;;;;;;;10.62;95.96;102482.22;5091608;28;20028;-84
2022/08/07 04:58:32;;;;;;;11.00;6.57;;;;;;;10.64;95.85;102488.22;5091182;28;20032;-83
2022/08/07 05:01:05;;;;;;;16.58;6.88;;;;;;;10.68;95.92;102481.38;5091091;28;20111;-84
2022/08/07 05:03:40;;;;;;;11.13;7.65;;;;;;;10.72;97.21;102483.41;5091697;28;20051;-84
2022/08/07 05:06:39;;;;;;;11.07;7.07;;;;;;;10.77;95.56;102477.38;5091742;28;20058;-84
2022/08/07 05:09:15;;;;;;;11.80;7.30;;;;;;;10.88;95.72;102490.06;5091081;28;20740;-83
2022/08/07 05:11:48;;;;;;;12.27;7.65;;;;;;;11.09;96.13;102492.59;5090904;28;20398;-83
2022/08/07 05:14:51;;;;;;;11.02;8.10;;;;;;;11.28;95.11;102488.06;5091449;28;20016;-83
2022/08/07 05:17:18;;;;;;;10.60;8.23;;;;;;;11.51;95.23;102488.25;5028351;28;20079;-83
2022/08/07 05:19:48;;;;;;;11.43;8.27;;;;;;;12.20;93.44;102497.16;5079122;28;20542;-83
2022/08/07 05:22:16;;;;;;;12.35;7.65;;;;;;;12.80;89.37;102493.56;5091283;28;20032;-83
2022/08/07 05:24:44;;;;;;;12.02;7.53;;;;;;;13.39;87.77;102500.81;5088824;28;20085;-83
2022/08/07 05:27:13;;;;;;;10.55;7.35;;;;;;;14.04;84.66;102501.66;5091089;28;20048;-83
2022/08/07 05:29:40;;;;;;;13.02;6.97;;;;;;;14.65;80.33;102497.59;5090794;28;20613;-83
2022/08/07 05:32:07;;;;;;;8.63;7.07;;;;;;;15.07;78.89;102493.66;5090308;28;20093;-83
2022/08/07 05:34:35;;;;;;;11.03;7.30;;;;;;;15.37;76.80;102503.25;5091365;28;20278;-83
2022/08/07 05:37:02;;;;;;;11.55;7.53;;;;;;;15.46;75.58;102504.47;5091054;28;20040;-83
2022/08/07 05:39:27;;;;;;;9.93;7.05;;;;;;;15.44;75.69;102510.13;5090965;28;20035;-83
2022/08/07 05:41:53;;;;;;;10.93;7.38;;;;;;;15.26;76.66;102508.53;5090337;28;20024;-83
2022/08/07 05:44:19;;;;;;;9.43;6.57;;;;;;;15.03;76.50;102514.13;5090930;28;20031;-83
2022/08/07 05:46:47;;;;;;;9.93;6.85;;;;;;;14.73;78.31;102501.78;5090780;28;20020;-83
2022/08/07 05:49:12;;;;;;;9.73;6.60;;;;;;;14.56;78.59;102507.97;5090908;28;20020;-83
2022/08/07 05:51:40;;;;;;;12.45;6.38;;;;;;;14.46;78.80;102502.38;5090389;28;20013;-83
2022/08/07 05:54:05;;;;;;;9.70;6.73;;;;;;;14.30;80.88;102498.59;5090815;28;20356;-83
2022/08/07 05:56:33;;;;;;;7.70;6.68;;;;;;;14.19;81.75;102505.69;5090641;28;20039;-83
2022/08/07 05:59:01;;;;;;;9.18;6.55;;;;;;;14.01;81.68;102496.72;5090665;28;20493;-84
2022/08/07 06:01:31;;;;;;;10.93;7.32;;;;;;;14.02;81.73;102502.94;5090436;28;20128;-83
2022/08/07 06:03:57;;;;;;;11.07;7.20;;;;;;;13.93;82.34;102507.88;5093465;28;20020;-82
2022/08/07 06:06:24;;;;;;;13.60;7.33;;;;;;;13.90;83.58;102508.34;5095117;28;20274;-83
2022/08/07 06:08:51;;;;;;;12.90;7.10;;;;;;;13.93;83.53;102519.50;5094831;28;20099;-82
2022/08/07 06:11:16;;;;;;;11.80;7.60;;;;;;;13.93;83.19;102515.97;5094333;28;20024;-84
2022/08/07 06:13:44;;;;;;;10.57;7.27;;;;;;;13.95;83.33;102518.44;5094485;28;20038;-83
2022/08/07 06:16:11;;;;;;;12.00;7.30;;;;;;;13.94;83.01;102523.00;5094711;28;20036;-83
2022/08/07 06:18:38;;;;;;;14.30;7.60;;;;;;;13.99;82.74;102525.78;5094485;28;20054;-83
2022/08/07 06:21:05;;;;;;;10.68;7.53;;;;;;;14.06;82.61;102512.97;5093970;28;20028;-82
2022/08/07 06:23:31;;;;;;;11.73;7.97;;;;;;;14.15;82.92;102510.72;5094718;28;20040;-83
2022/08/07 06:25:58;;;;;;;10.80;7.43;;;;;;;14.18;81.75;102520.22;5092970;28;20082;-83
2022/08/07 06:28:24;;;;;;;14.57;7.55;;;;;;;14.19;82.03;102528.06;5094009;28;20016;-83
2022/08/07 06:30:49;;;;;;;11.47;7.30;;;;;;;14.29;81.60;102524.75;5093705;28;20123;-83
2022/08/07 06:33:15;;;;;;;10.60;6.78;;;;;;;14.35;81.91;102512.16;5094423;28;20043;-83
2022/08/07 06:35:40;;;;;;;11.17;7.30;;;;;;;14.51;82.33;102527.59;5094736;28;20023;-82
2022/08/07 06:38:06;;;;;;;12.70;7.83;;;;;;;14.58;81.11;102524.72;5093823;28;20028;-82
2022/08/07 06:40:48;;;;;;;12.07;8.07;;;;;;;14.71;80.96;102512.81;5093748;28;20020;-83
2022/08/07 06:43:15;;;;;;;13.25;8.18;;;;;;;14.83;80.62;102520.84;5094614;28;20078;-82
2022/08/07 06:45:41;;;;;;;14.05;7.35;;;;;;;14.93;79.98;102515.63;5094034;28;20467;-82
2022/08/07 06:48:06;;;;;;;13.93;8.67;;;;;;;14.98;78.73;102517.56;5092788;28;20020;-83
2022/08/07 06:50:35;;;;;;;11.20;8.00;;;;;;;15.06;78.74;102508.22;5093570;28;20364;-82
2022/08/07 06:53:02;;;;;;;12.70;7.93;;;;;;;15.20;78.54;102514.13;5093569;28;20028;-83
2022/08/07 06:55:30;;;;;;;14.15;7.90;;;;;;;15.27;77.78;102503.94;5093927;28;20103;-83
2022/08/07 06:58:00;;;;;;;11.25;7.93;;;;;;;15.41;77.84;102510.63;5094088;28;20071;-83
2022/08/07 07:00:29;;;;;;;12.48;8.25;;;;;;;15.49;77.88;102506.69;5093293;28;20443;-83
2022/08/07 07:02:55;;;;;;;11.88;8.20;;;;;;;15.52;77.08;102491.84;5093564;28;20093;-84
2022/08/07 07:05:21;;;;;;;12.07;7.47;;;;;;;15.70;75.97;102502.34;5093596;28;20028;-83
2022/08/07 07:07:46;;;;;;;12.57;8.27;;;;;;;15.90;76.26;102501.00;5093480;28;20076;-83
2022/08/07 07:10:12;;;;;;;11.10;7.27;;;;;;;15.95;73.59;102497.53;5093072;28;20432;-83
2022/08/07 07:12:44;;;;;;;12.13;7.40;;;;;;;16.09;73.01;102511.47;5093920;28;20020;-83
2022/08/07 07:15:29;;;;;;;11.32;7.07;;;;;;;16.24;73.34;102508.13;5092509;28;20047;-84
2022/08/07 07:18:23;;;;;;;12.95;7.47;;;;;;;16.35;71.59;102517.94;5093827;28;20075;-83
2022/08/07 07:20:55;;;;;;;10.60;7.20;;;;;;;16.37;70.10;102513.09;5092898;28;20024;-84
2022/08/07 07:23:22;;;;;;;13.95;7.93;;;;;;;16.46;70.61;102525.06;5093435;28;20042;-83
2022/08/07 07:25:54;;;;;;;11.52;7.63;;;;;;;16.57;71.23;102512.47;5090743;28;20103;-83
2022/08/07 07:28:23;;;;;;;12.30;7.80;;;;;;;16.71;70.45;102509.31;5093247;28;20032;-84
2022/08/07 07:31:02;;;;;;;9.17;6.63;;;;;;;16.88;69.87;102507.31;5092278;28;20115;-83
2022/08/07 07:33:31;;;;;;;11.33;7.53;;;;;;;17.07;69.26;102505.03;5093568;28;20349;-83
2022/08/07 07:35:57;;;;;;;10.25;6.75;;;;;;;17.18;66.62;102502.38;5093380;28;20047;-83
2022/08/07 07:38:24;;;;;;;8.68;7.00;;;;;;;17.29;66.92;102504.06;5092961;28;20028;-84
2022/08/07 07:40:52;;;;;;;9.77;6.88;;;;;;;17.30;65.66;102505.72;5092469;28;20089;-83
2022/08/07 07:43:20;;;;;;;11.73;7.47;;;;;;;17.41;65.96;102496.53;5092818;28;20024;-83
2022/08/07 07:45:48;;;;;;;8.75;6.68;;;;;;;17.62;65.28;102502.06;5091682;28;20526;-82
2022/08/07 07:48:18;;;;;;;11.10;6.72;;;;;;;17.74;64.78;102498.28;5092903;28;20089;-84
2022/08/07 07:50:47;;;;;;;10.60;6.80;;;;;;;17.85;64.39;102497.25;5092562;28;20027;-83
2022/08/07 07:53:15;;;;;;;7.47;5.95;;;;;;;17.94;62.56;102492.94;5092613;28;20028;-82
2022/08/07 07:55:41;;;;;;;9.63;6.60;;;;;;;17.98;63.09;102483.22;5092641;28;20107;-83
2022/08/07 07:58:08;;;;;;;10.40;6.00;;;;;;;18.12;62.61;102488.94;5092931;28;20365;-82
2022/08/07 08:00:34;;;;;;;11.50;7.38;;;;;;;18.25;62.57;102482.19;5092140;28;21900;-83
2022/08/07 08:03:06;;;;;;;8.43;6.25;;;;;;;18.39;61.49;102484.38;5092575;28;20443;-83
2022/08/07 08:05:34;;;;;;;10.50;6.25;;;;;;;18.54;61.57;102476.22;5092359;28;20032;-83
2022/08/07 08:08:00;;;;;;;6.38;4.97;;;;;;;18.69;60.19;102474.56;5092462;28;20031;-83
2022/08/07 08:10:26;;;;;;;8.30;4.93;;;;;;;18.80;58.19;102478.94;5092088;28;20032;-83
2022/08/07 08:12:53;;;;;;;9.63;6.45;;;;;;;18.98;58.47;102482.19;5092513;28;20078;-83
2022/08/07 08:15:18;;;;;;;12.27;5.93;;;;;;;19.02;57.79;102472.38;5092403;28;20047;-83
2022/08/07 08:17:44;;;;;;;11.30;5.63;;;;;;;19.27;57.40;102485.06;5093501;28;20031;-82
2022/08/07 08:20:13;;;;;;;14.00;6.53;;;;;;;19.41;57.62;102487.22;5091832;28;20020;-83
2022/08/07 08:28:21;;;;;;;8.07;5.70;;;;;;;19.64;56.03;102483.03;5092555;28;20046;-83
2022/08/07 08:30:51;;;;;;;12.15;5.70;;;;;;;19.78;55.73;102489.50;5091222;28;20035;-83
2022/08/07 08:33:19;;;;;;;9.03;4.87;;;;;;;19.96;54.54;102495.41;5092197;28;20099;-83
2022/08/07 08:35:50;;;;;;;5.43;4.70;;;;;;;20.01;54.14;102497.28;5091720;28;20796;-83
2022/08/07 08:38:19;;;;;;;6.00;4.80;;;;;;;20.02;53.42;102488.00;5091851;28;20106;-82
2022/08/07 08:40:53;;;;;;;6.70;4.20;;;;;;;20.07;53.68;102496.97;5090726;28;20040;-82
2022/08/07 08:44:00;;;;;;;6.07;4.50;;;;;;;20.13;54.22;102501.28;5091814;28;20046;-83
2022/08/07 08:46:43;;;;;;;7.22;4.47;;;;;;;20.12;53.52;102494.19;5061443;28;20067;-83
2022/08/07 08:49:24;;;;;;;8.02;4.93;;;;;;;20.29;53.93;102501.16;5091550;28;20032;-83
2022/08/07 08:51:56;;;;;;;8.88;4.50;;;;;;;20.52;53.35;102486.03;5090942;28;20078;-83
2022/08/07 08:54:37;;;;;;;5.68;4.00;;;;;;;20.64;52.62;102493.81;5091613;28;20463;-83
2022/08/07 08:57:10;;;;;;;5.65;3.95;;;;;;;20.81;51.91;102485.25;5091470;28;20473;-83
2022/08/07 08:59:58;;;;;;;5.80;4.50;;;;;;;20.96;53.14;102491.63;5091448;28;20479;-83
2022/08/07 09:02:57;;;;;;;8.57;4.47;;;;;;;21.14;51.95;102492.81;5091262;28;20302;-83
2022/08/07 09:05:33;;;;;;;7.15;3.90;;;;;;;21.31;51.16;102492.34;5091497;28;20036;-83
2022/08/07 09:08:40;;;;;;;6.80;4.53;;;;;;;21.32;51.25;102475.69;5091505;28;20095;-83
2022/08/07 09:11:18;;;;;;;8.60;3.92;;;;;;;21.30;50.58;102486.09;5090389;28;20071;-83
2022/08/07 09:14:06;;;;;;;6.43;3.60;;;;;;;21.42;50.68;102479.38;5091262;28;20386;-83
2022/08/07 09:16:41;;;;;;;5.43;3.70;;;;;;;21.70;48.45;102474.16;5091374;28;20024;-83
2022/08/07 09:19:29;;;;;;;7.28;4.03;;;;;;;21.62;49.32;102481.88;5091144;28;20436;-83
2022/08/07 09:22:09;;;;;;;5.30;3.30;;;;;;;21.56;47.99;102474.03;5079240;28;20089;-83
2022/08/07 09:24:56;;;;;;;6.50;3.95;;;;;;;21.72;48.65;102482.88;5091470;28;20048;-83
2022/08/07 09:27:22;;;;;;;7.87;4.10;;;;;;;21.83;48.54;102483.50;5088530;28;20024;-83
2022/08/07 09:29:47;;;;;;;4.93;3.80;;;;;;;21.89;47.34;102469.53;5090686;28;20285;-82
2022/08/07 09:32:59;;;;;;;4.67;3.73;;;;;;;21.96;48.91;102460.97;5090951;28;20467;-83
2022/08/07 09:35:43;;;;;;;6.05;3.45;;;;;;;22.36;48.88;102469.63;5090762;28;20383;-83
2022/08/07 09:38:22;;;;;;;5.03;3.17;;;;;;;22.60;46.97;102462.41;5090278;28;20119;-83
2022/08/07 09:41:06;;;;;;;9.70;3.67;;;;;;;22.59;45.24;102474.44;5090306;28;20688;-83
2022/08/07 09:44:05;;;;;;;4.20;3.20;;;;;;;22.75;45.51;102474.97;5089820;28;20111;-83
2022/08/07 09:46:43;;;;;;;4.28;3.17;;;;;;;22.96;44.20;102467.22;5090868;28;20482;-83
2022/08/07 09:49:39;;;;;;;3.72;3.05;;;;;;;23.10;45.55;102461.72;5090852;28;20088;-83
2022/08/07 09:52:18;;;;;;;5.28;3.60;;;;;;;23.25;44.54;102456.00;5089887;28;20028;-83
2022/08/07 09:54:46;;;;;;;8.40;3.88;;;;;;;23.26;43.33;102448.59;5090965;28;20024;-84
2022/08/07 09:57:33;;;;;;;9.27;3.63;;;;;;;23.30;43.93;102452.34;5090776;28;20087;-83
2022/08/07 10:00:09;;;;;;;4.60;3.17;;;;;;;23.23;43.98;102449.19;5090046;28;20032;-82
2022/08/07 10:03:06;;;;;;;5.50;3.83;;;;;;;23.14;43.90;102443.59;5090418;28;20056;-83
2022/08/07 10:05:51;;;;;;;9.27;4.10;;;;;;;23.24;42.18;102448.09;5090714;28;20028;-83
2022/08/07 10:08:46;;;;;;;5.83;3.03;;;;;;;23.50;42.40;102444.81;5091028;28;20290;-83
2022/08/07 10:11:29;;;;;;;6.03;2.80;;;;;;;23.50;42.84;102431.13;5089842;28;20032;-84
2022/08/07 10:14:01;;;;;;;5.75;2.70;;;;;;;23.53;41.45;102427.78;5090578;28;20109;-84
2022/08/07 10:17:02;;;;;;;4.30;2.70;;;;;;;23.71;41.93;102435.03;5090616;28;20036;-83
2022/08/07 10:19:58;;;;;;;4.32;3.10;;;;;;;23.94;41.31;102429.56;5090419;28;20024;-84
2022/08/07 10:22:56;;;;;;;4.47;2.88;;;;;;;24.10;41.64;102429.25;5090066;28;20036;-82
2022/08/07 10:25:33;;;;;;;6.78;3.30;;;;;;;24.01;40.58;102431.91;5090495;28;20046;-83
2022/08/07 10:28:17;;;;;;;3.88;3.13;;;;;;;24.22;40.25;102421.25;5090422;28;20078;-83
2022/08/07 10:31:02;;;;;;;7.13;3.70;;;;;;;24.12;39.86;102426.97;5089552;28;20081;-83
2022/08/07 10:33:53;;;;;;;3.90;2.40;;;;;;;24.30;38.54;102427.91;5089871;28;20035;-83
2022/08/07 10:36:38;;;;;;;3.87;3.00;;;;;;;24.38;39.05;102431.81;5090422;28;20274;-83
2022/08/07 10:39:09;;;;;;;5.57;2.65;;;;;;;24.52;36.70;102424.31;5090210;28;20037;-83
2022/08/07 10:41:39;;;;;;;3.75;2.80;;;;;;;24.48;36.70;102412.34;5089487;28;20066;-83
2022/08/07 10:44:23;;;;;;;2.90;2.67;;;;;;;24.64;37.24;102413.56;5090120;28;20081;-84
2022/08/07 10:46:58;;;;;;;4.40;2.65;;;;;;;24.72;37.98;102412.03;5090462;28;20085;-84
2022/08/07 10:49:43;;;;;;;4.38;3.10;;;;;;;24.60;37.40;102414.50;5090317;28;20052;-84
2022/08/07 10:52:17;;;;;;;4.05;3.33;;;;;;;24.60;37.48;102412.59;5093275;28;20032;-83
2022/08/07 10:54:53;;;;;;;5.13;3.08;;;;;;;24.66;37.52;102410.50;5093807;28;20032;-84
2022/08/07 10:57:45;;;;;;;5.82;3.58;;;;;;;24.47;38.64;102410.72;5093900;28;20077;-83
2022/08/07 11:00:14;;;;;;;5.57;3.10;;;;;;;24.15;37.94;102409.91;5093333;28;20028;-83
2022/08/07 11:03:04;;;;;;;5.50;3.03;;;;;;;24.23;38.23;102397.41;5093444;28;20781;-83
2022/08/07 11:05:55;;;;;;;4.55;2.70;;;;;;;24.17;37.90;102403.03;5093709;28;20102;-83
2022/08/07 11:08:45;;;;;;;4.18;2.80;;;;;;;24.38;37.55;102391.50;5091970;28;20031;-83
2022/08/07 11:11:20;;;;;;;8.68;3.00;;;;;;;24.44;35.58;102386.72;5092399;28;20399;-83
2022/08/07 11:14:27;;;;;;;4.03;2.63;;;;;;;24.73;37.83;102374.44;5093489;28;20024;-83
2022/08/07 11:17:06;;;;;;;2.85;2.55;;;;;;;24.65;36.10;102374.06;5063348;28;20047;-82
2022/08/07 11:19:47;;;;;;;5.95;2.97;;;;;;;24.69;35.59;102373.44;5091915;28;20028;-83
2022/08/07 11:22:26;;;;;;;2.60;2.40;;;;;;;24.73;36.26;102375.28;5093445;28;20046;-83
2022/08/07 11:25:18;;;;;;;5.57;3.33;;;;;;;24.85;37.21;102371.09;5093551;28;20425;-83
2022/08/07 11:28:08;;;;;;;3.50;3.00;;;;;;;25.24;36.94;102361.97;5090790;28;20020;-84
2022/08/07 11:30:48;;;;;;;3.90;3.03;;;;;;;24.93;35.93;102356.59;5091390;28;20714;-83
2022/08/07 11:33:32;;;;;;;3.95;3.05;;;;;;;24.92;36.62;102355.81;5093011;28;20055;-83
2022/08/07 11:36:10;;;;;;;6.20;3.10;;;;;;;24.96;36.74;102361.44;5092738;28;20032;-83
2022/08/07 11:39:12;;;;;;;5.57;3.15;;;;;;;24.91;37.07;102353.38;5092715;28;20024;-84
2022/08/07 11:41:52;;;;;;;2.92;2.70;;;;;;;25.16;36.37;102353.72;5086468;28;20040;-84
2022/08/07 11:44:35;;;;;;;8.43;2.83;;;;;;;25.60;35.48;102348.28;5092989;28;20081;-83
2022/08/07 11:47:21;;;;;;;4.22;3.15;;;;;;;25.95;35.01;102350.94;5092919;28;20047;-83
2022/08/07 11:50:11;;;;;;;5.20;2.55;;;;;;;26.32;34.88;102342.31;5092826;28;20028;-83